This is the latest recevied weather packets stored in our database for station/object F5TND-3. If no packets are shown the sender has not sent any weather packets the latest 10 day(s).
| Time | Temp. | Humidity | Pressure | Rain* | Wind** | Luminosity | Snow |
|---|---|---|---|---|---|---|---|
| 1787746179 | 28.33° C | 47% | 1007.1 hPa | - | - | - | - |
| 1787743779 | 27.78° C | 51% | 1007.9 hPa | - | - | - | - |
| 1787741358 | 25.56° C | 59% | 1008.7 hPa | - | - | - | - |
| 1787740158 | 24.44° C | 67% | 1009.1 hPa | - | - | - | - |
| 1787738958 | 23.33° C | 70% | 1009.5 hPa | - | - | - | - |
| 1787737758 | 23.33° C | 71% | 1009.7 hPa | - | - | - | - |
| 1787736568 | 23.89° C | 69% | 1009.9 hPa | - | - | - | - |
| 1787735358 | 24.44° C | 68% | 1010.1 hPa | - | - | - | - |
| 1787734158 | 23.89° C | 71% | 1010.1 hPa | - | - | - | - |
| 1787732958 | 25° C | 66% | 1010.2 hPa | - | - | - | - |
| 1787731758 | 22.78° C | 77% | 1010.3 hPa | - | - | - | - |
| 1787730559 | 22.78° C | 84% | 1010.4 hPa | - | - | - | - |
| 1787726958 | 22.22° C | 86% | 1010.9 hPa | - | - | - | - |
| 1787725757 | 21.11° C | 93% | 1010.9 hPa | - | - | - | - |
| 1787724557 | 19.44° C | 100% | 1010.9 hPa | - | - | - | - |
| 1787723357 | 17.22° C | 100% | 1010.7 hPa | - | - | - | - |
| 1787722157 | 16.11° C | 100% | 1010.7 hPa | - | - | - | - |
| 1787722100 | 16.11° C | 100% | 1010.7 hPa | - | - | - | - |
| 1787721508 | 16.11° C | 100% | 1010.9 hPa | - | - | - | - |
| 1787720308 | 16.11° C | 100% | 1010.7 hPa | - | - | - | - |
| 1787719108 | 16.11° C | 100% | 1010.7 hPa | - | - | - | - |
| 1787717908 | 16.11° C | 100% | 1011.1 hPa | - | - | - | - |
| 1787716708 | 15.56° C | 100% | 1011.2 hPa | - | - | - | - |
| 1787715508 | 16.11° C | 100% | 1011.4 hPa | - | - | - | - |
| 1787714311 | 16.67° C | 100% | 1011.5 hPa | - | - | - | - |
* Rain since midnight (hover to see other rain measurements)
** Current wind speed in m/s (hover to see current wind gust speed)